createdAt,value
2019-02-19T00:00:32.310Z,5.94
2019-02-19T00:01:32.318Z,5.93
2019-02-19T00:02:32.293Z,5.91
2019-02-19T00:03:32.280Z,5.93
2019-02-19T00:04:32.281Z,5.90
2019-02-19T00:05:32.265Z,5.94
2019-02-19T00:06:32.270Z,5.87
2019-02-19T00:07:32.242Z,5.82
2019-02-19T00:08:32.226Z,5.72
2019-02-19T00:09:32.214Z,5.68
2019-02-19T00:10:32.204Z,5.66
2019-02-19T00:11:32.206Z,5.59
2019-02-19T00:12:32.217Z,5.65
2019-02-19T00:13:32.172Z,5.54
2019-02-19T00:14:32.162Z,5.59
2019-02-19T00:15:32.151Z,5.69
2019-02-19T00:16:32.164Z,5.72
2019-02-19T00:17:32.133Z,5.84
2019-02-19T00:18:32.128Z,5.84
2019-02-19T00:19:32.133Z,5.73
2019-02-19T00:20:32.100Z,5.73
2019-02-19T00:21:32.084Z,5.72
2019-02-19T00:22:32.092Z,5.65
2019-02-19T00:23:32.069Z,5.62
2019-02-19T00:24:32.055Z,5.56
2019-02-19T00:25:32.069Z,5.72
2019-02-19T00:26:32.033Z,5.73
2019-02-19T00:27:32.026Z,5.64
2019-02-19T00:28:32.025Z,5.65
2019-02-19T00:29:31.999Z,5.64
2019-02-19T00:30:31.992Z,5.62
2019-02-19T00:31:32.004Z,5.62
2019-02-19T00:32:31.981Z,5.59
2019-02-19T00:33:31.960Z,5.59
2019-02-19T00:34:31.955Z,5.47
2019-02-19T00:35:31.934Z,5.48
2019-02-19T00:36:31.943Z,5.33
2019-02-19T00:37:31.916Z,5.30
2019-02-19T00:38:31.915Z,5.32
2019-02-19T00:39:31.893Z,5.33
2019-02-19T00:40:31.893Z,5.26
2019-02-19T00:41:31.870Z,5.28
2019-02-19T00:42:31.877Z,5.23
2019-02-19T00:43:31.850Z,5.21
2019-02-19T00:44:31.841Z,5.17
2019-02-19T00:45:31.832Z,5.15
2019-02-19T00:46:31.849Z,5.20
2019-02-19T00:47:31.809Z,5.20
2019-02-19T00:48:31.813Z,5.39
2019-02-19T00:49:31.784Z,5.36
2019-02-19T00:50:31.775Z,5.38
2019-02-19T00:51:31.767Z,5.46
2019-02-19T00:52:31.765Z,5.59
2019-02-19T00:53:31.783Z,5.59
2019-02-19T00:54:31.749Z,5.59
2019-02-19T00:55:31.725Z,5.48
2019-02-19T00:56:31.709Z,5.46
2019-02-19T00:57:31.701Z,5.62
2019-02-19T00:58:31.712Z,5.66
2019-02-19T00:59:31.706Z,5.86
2019-02-19T01:00:31.684Z,5.90
2019-02-19T01:01:31.658Z,5.89
2019-02-19T01:02:31.649Z,5.84
2019-02-19T01:03:31.650Z,5.80
2019-02-19T01:04:31.626Z,5.82
2019-02-19T01:05:31.660Z,5.80
2019-02-19T01:06:31.638Z,5.71
2019-02-19T01:07:31.615Z,5.66
2019-02-19T01:08:31.606Z,5.61
2019-02-19T01:09:31.581Z,5.56
2019-02-19T01:10:31.557Z,5.47
2019-02-19T01:11:31.550Z,5.47
2019-02-19T01:12:31.646Z,5.51
2019-02-19T01:13:31.539Z,5.47
2019-02-19T01:14:31.516Z,5.43
2019-02-19T01:15:31.507Z,5.65
2019-02-19T01:16:31.494Z,5.91
2019-02-19T01:17:31.603Z,6.08
2019-02-19T01:18:31.473Z,6.22
2019-02-19T01:19:31.461Z,6.16
2019-02-19T01:20:31.452Z,6.17
2019-02-19T01:21:31.447Z,6.20
2019-02-19T01:22:31.451Z,6.20
2019-02-19T01:23:31.431Z,6.26
2019-02-19T01:24:31.431Z,6.20
2019-02-19T01:25:31.399Z,6.28
2019-02-19T01:26:31.389Z,6.20
2019-02-19T01:27:31.395Z,6.20
2019-02-19T01:28:31.368Z,6.16
2019-02-19T01:29:31.363Z,6.30
2019-02-19T01:30:31.369Z,6.14
2019-02-19T01:31:31.335Z,6.16
2019-02-19T01:32:31.340Z,6.09
2019-02-19T01:33:31.310Z,6.07
2019-02-19T01:34:31.305Z,6.08
2019-02-19T01:35:31.290Z,6.09
2019-02-19T01:36:31.336Z,6.07
2019-02-19T01:37:31.287Z,6.12
2019-02-19T01:38:31.258Z,6.17
2019-02-19T01:39:31.247Z,6.26
2019-02-19T01:40:31.238Z,6.19
2019-02-19T01:41:31.226Z,6.19
2019-02-19T01:42:31.236Z,6.14
2019-02-19T01:43:31.211Z,6.22
2019-02-19T01:44:31.209Z,6.12
2019-02-19T01:45:34.134Z,6.11
2019-02-19T01:46:31.173Z,6.05
2019-02-19T01:47:31.182Z,5.98
2019-02-19T01:48:31.161Z,5.86
2019-02-19T01:49:31.140Z,5.80
2019-02-19T01:50:31.157Z,5.99
2019-02-19T01:51:31.126Z,6.09
2019-02-19T01:52:31.109Z,6.09
2019-02-19T01:53:31.118Z,6.22
2019-02-19T01:54:31.086Z,6.16
2019-02-19T01:55:31.075Z,6.09
2019-02-19T01:56:31.084Z,6.07
2019-02-19T01:57:31.075Z,6.01
2019-02-19T01:58:31.044Z,5.97
2019-02-19T01:59:31.052Z,5.87
2019-02-19T02:00:31.022Z,5.89
2019-02-19T02:01:31.010Z,5.75
2019-02-19T02:02:31.036Z,5.72
2019-02-19T02:03:31.024Z,5.73
2019-02-19T02:04:30.983Z,5.82
2019-02-19T02:05:30.968Z,5.82
2019-02-19T02:06:30.970Z,5.86
2019-02-19T02:07:30.946Z,5.83
2019-02-19T02:08:30.978Z,5.80
2019-02-19T02:09:30.942Z,5.84
2019-02-19T02:10:30.923Z,6.04
2019-02-19T02:11:30.906Z,6.07
2019-02-19T02:12:30.905Z,5.99
2019-02-19T02:13:30.882Z,5.99
2019-02-19T02:14:30.914Z,5.91
2019-02-19T02:15:30.893Z,5.94
2019-02-19T02:16:30.849Z,5.84
2019-02-19T02:17:30.840Z,5.91
2019-02-19T02:18:30.833Z,5.86
2019-02-19T02:19:30.816Z,5.87
2019-02-19T02:20:30.845Z,5.79
2019-02-19T02:21:30.803Z,5.71
2019-02-19T02:22:30.820Z,5.65
2019-02-19T02:23:30.792Z,5.62
2019-02-19T02:24:30.763Z,5.62
2019-02-19T02:25:30.754Z,5.62
2019-02-19T02:26:30.753Z,5.65
2019-02-19T02:27:30.730Z,5.59
2019-02-19T02:28:30.752Z,5.57
2019-02-19T02:29:30.710Z,5.68
2019-02-19T02:30:30.701Z,5.75
2019-02-19T02:31:30.693Z,5.82
2019-02-19T02:32:30.683Z,5.97
2019-02-19T02:33:30.686Z,6.09
2019-02-19T02:34:30.757Z,6.11
2019-02-19T02:35:30.647Z,6.17
2019-02-19T02:36:30.640Z,6.22
2019-02-19T02:37:30.635Z,6.26
2019-02-19T02:38:30.630Z,6.36
2019-02-19T02:39:30.604Z,6.41
2019-02-19T02:40:30.614Z,6.46
2019-02-19T02:41:30.591Z,6.59
2019-02-19T02:42:30.579Z,6.60
2019-02-19T02:43:30.796Z,6.64
2019-02-19T02:44:30.567Z,6.57
2019-02-19T02:45:30.537Z,6.63
2019-02-19T02:46:30.553Z,6.67
2019-02-19T02:47:30.526Z,6.69
2019-02-19T02:48:30.522Z,6.67
2019-02-19T02:49:30.495Z,6.66
2019-02-19T02:50:30.508Z,6.63
2019-02-19T02:51:30.474Z,6.64
2019-02-19T02:52:30.472Z,6.59
2019-02-19T02:53:30.478Z,6.60
2019-02-19T02:54:30.511Z,6.57
2019-02-19T02:55:30.440Z,6.52
2019-02-19T02:56:30.434Z,6.52
2019-02-19T02:57:30.410Z,6.60
2019-02-19T02:58:30.462Z,6.51
2019-02-19T02:59:30.394Z,6.48
2019-02-19T03:00:30.399Z,6.49
2019-02-19T03:01:30.414Z,6.54
2019-02-19T03:02:30.374Z,6.64
2019-02-19T03:03:30.358Z,6.60
2019-02-19T03:04:30.696Z,6.62
2019-02-19T03:05:30.353Z,6.63
2019-02-19T03:06:30.333Z,6.57
2019-02-19T03:07:30.337Z,6.63
2019-02-19T03:08:30.293Z,6.60
2019-02-19T03:09:30.283Z,6.64
2019-02-19T03:10:30.318Z,6.62
2019-02-19T03:11:30.269Z,6.75
2019-02-19T03:12:30.273Z,6.70
2019-02-19T03:13:30.243Z,6.66
2019-02-19T03:14:30.240Z,6.75
2019-02-19T03:15:30.240Z,6.72
2019-02-19T03:16:30.243Z,6.69
2019-02-19T03:17:30.214Z,6.69
2019-02-19T03:18:30.224Z,6.77
2019-02-19T03:19:30.181Z,6.69
2019-02-19T03:20:30.193Z,6.67
2019-02-19T03:21:30.172Z,6.79
2019-02-19T03:22:30.179Z,6.72
2019-02-19T03:23:30.152Z,6.75
2019-02-19T03:24:30.128Z,6.79
2019-02-19T03:25:30.399Z,6.78
2019-02-19T03:26:30.105Z,6.74
2019-02-19T03:27:30.112Z,6.78
2019-02-19T03:28:30.104Z,6.78
2019-02-19T03:29:30.074Z,6.72
2019-02-19T03:30:30.062Z,6.82
2019-02-19T03:31:30.050Z,6.77
2019-02-19T03:32:30.041Z,6.81
2019-02-19T03:33:30.049Z,6.74
2019-02-19T03:34:30.036Z,6.77
2019-02-19T03:35:30.005Z,6.77
2019-02-19T03:36:30.000Z,6.77
2019-02-19T03:37:29.989Z,6.79
2019-02-19T03:38:29.981Z,6.81
2019-02-19T03:39:29.987Z,6.70
2019-02-19T03:40:29.974Z,6.75
2019-02-19T03:41:29.957Z,6.75
2019-02-19T03:42:29.931Z,6.64
2019-02-19T03:43:29.939Z,6.67
2019-02-19T03:44:29.913Z,6.64
2019-02-19T03:45:29.914Z,6.74
2019-02-19T03:46:30.503Z,6.66
2019-02-19T03:47:29.880Z,6.64
2019-02-19T03:48:29.882Z,6.60
2019-02-19T03:49:29.856Z,6.67
2019-02-19T03:50:29.847Z,6.69
2019-02-19T03:51:29.891Z,6.59
2019-02-19T03:52:29.823Z,6.57
2019-02-19T03:53:29.826Z,6.62
2019-02-19T03:54:29.801Z,6.66
2019-02-19T03:55:29.795Z,6.63
2019-02-19T03:56:29.780Z,6.70
2019-02-19T03:57:29.796Z,6.67
2019-02-19T03:58:29.780Z,6.66
2019-02-19T03:59:29.756Z,6.62
2019-02-19T04:00:29.737Z,6.69
2019-02-19T04:01:29.726Z,6.67
2019-02-19T04:02:29.725Z,6.70
2019-02-19T04:03:29.735Z,6.69
2019-02-19T04:04:29.719Z,6.69
2019-02-19T04:05:29.685Z,6.70
2019-02-19T04:06:29.671Z,6.57
2019-02-19T04:07:29.689Z,6.67
2019-02-19T04:08:29.652Z,6.70
2019-02-19T04:09:29.654Z,6.67
2019-02-19T04:10:29.657Z,6.60
2019-02-19T04:11:29.651Z,6.63
2019-02-19T04:12:29.633Z,6.62
2019-02-19T04:13:29.627Z,6.69
2019-02-19T04:14:29.603Z,6.66
2019-02-19T04:15:29.679Z,6.67
2019-02-19T04:16:29.591Z,6.57
2019-02-19T04:17:29.563Z,6.56
2019-02-19T04:18:29.560Z,6.69
2019-02-19T04:19:29.539Z,6.60
2019-02-19T04:20:29.520Z,6.48
2019-02-19T04:21:29.519Z,6.52
2019-02-19T04:22:29.549Z,6.52
2019-02-19T04:23:29.497Z,6.51
2019-02-19T04:24:29.509Z,6.46
2019-02-19T04:25:29.488Z,6.48
2019-02-19T04:26:29.458Z,6.51
2019-02-19T04:27:29.446Z,6.48
2019-02-19T04:28:29.563Z,6.51
2019-02-19T04:29:29.432Z,6.52
2019-02-19T04:30:29.421Z,6.42
2019-02-19T04:31:29.403Z,6.39
2019-02-19T04:32:29.398Z,6.39
2019-02-19T04:33:29.402Z,6.33
2019-02-19T04:34:29.390Z,6.31
2019-02-19T04:35:29.382Z,6.33
2019-02-19T04:36:29.348Z,6.16
2019-02-19T04:37:30.108Z,6.24
2019-02-19T04:38:29.334Z,6.19
2019-02-19T04:39:29.333Z,6.22
2019-02-19T04:40:29.323Z,6.20
2019-02-19T04:41:29.303Z,6.17
2019-02-19T04:42:29.312Z,6.16
2019-02-19T04:43:29.286Z,6.12
2019-02-19T04:44:29.338Z,6.05
2019-02-19T04:45:29.282Z,6.07
2019-02-19T04:46:31.786Z,6.07
2019-02-19T04:47:29.292Z,6.09
2019-02-19T04:48:29.234Z,6.04
2019-02-19T04:49:29.536Z,6.08
2019-02-19T04:50:29.236Z,6.07
2019-02-19T04:51:29.223Z,6.09
2019-02-19T04:52:29.183Z,5.98
2019-02-19T04:53:29.179Z,6.01
2019-02-19T04:54:29.215Z,5.98
2019-02-19T04:55:29.166Z,5.94
2019-02-19T04:56:29.191Z,5.94
2019-02-19T04:57:29.154Z,5.97
2019-02-19T04:58:29.135Z,5.94
2019-02-19T04:59:29.140Z,5.99
2019-02-19T05:00:29.114Z,5.99
2019-02-19T05:01:29.108Z,6.02
2019-02-19T05:02:29.074Z,6.07
2019-02-19T05:03:29.063Z,6.02
2019-02-19T05:04:29.088Z,6.07
2019-02-19T05:05:29.097Z,6.11
2019-02-19T05:06:29.035Z,6.09
2019-02-19T05:07:29.037Z,6.07
2019-02-19T05:08:29.032Z,6.09
2019-02-19T05:09:29.033Z,6.04
2019-02-19T05:10:29.203Z,6.01
2019-02-19T05:11:28.987Z,5.98
2019-02-19T05:12:28.968Z,5.98
2019-02-19T05:13:28.994Z,6.02
2019-02-19T05:14:28.974Z,6.04
2019-02-19T05:15:28.959Z,6.05
2019-02-19T05:16:28.923Z,6.07
2019-02-19T05:17:28.929Z,6.07
2019-02-19T05:18:28.907Z,6.08
2019-02-19T05:19:28.890Z,6.04
2019-02-19T05:20:28.896Z,6.07
2019-02-19T05:21:28.934Z,6.09
2019-02-19T05:22:28.873Z,6.09
2019-02-19T05:23:28.867Z,6.11
2019-02-19T05:24:28.843Z,6.07
2019-02-19T05:25:28.844Z,6.08
2019-02-19T05:26:28.853Z,6.07
2019-02-19T05:27:28.841Z,6.04
2019-02-19T05:28:28.814Z,6.09
2019-02-19T05:29:28.789Z,6.05
2019-02-19T05:30:28.812Z,6.05
2019-02-19T05:31:29.177Z,6.05
2019-02-19T05:32:28.760Z,6.04
2019-02-19T05:33:28.764Z,6.09
2019-02-19T05:34:28.736Z,6.07
2019-02-19T05:35:28.751Z,6.11
2019-02-19T05:36:28.720Z,6.09
2019-02-19T05:37:28.709Z,6.07
2019-02-19T05:38:28.711Z,6.11
2019-02-19T05:39:28.695Z,6.09
2019-02-19T05:40:28.679Z,6.05
2019-02-19T05:41:28.659Z,6.12
2019-02-19T05:42:28.659Z,6.11
2019-02-19T05:43:28.643Z,6.08
2019-02-19T05:44:28.649Z,6.07
2019-02-19T05:45:28.651Z,6.11
2019-02-19T05:46:28.611Z,6.11
2019-02-19T05:47:28.613Z,6.09
2019-02-19T05:48:28.589Z,6.12
2019-02-19T05:49:28.597Z,6.16
2019-02-19T05:50:28.562Z,6.11
2019-02-19T05:51:28.612Z,6.20
2019-02-19T05:52:28.548Z,6.09
2019-02-19T05:53:28.535Z,6.05
2019-02-19T05:54:28.529Z,6.11
2019-02-19T05:55:28.535Z,6.08
2019-02-19T05:56:28.526Z,6.07
2019-02-19T05:57:28.492Z,6.09
2019-02-19T05:58:28.480Z,6.04
2019-02-19T05:59:28.471Z,6.07
2019-02-19T06:00:28.460Z,5.99
2019-02-19T06:01:28.471Z,6.04
2019-02-19T06:02:28.464Z,6.02
2019-02-19T06:03:28.424Z,5.97
2019-02-19T06:04:28.414Z,5.99
2019-02-19T06:05:28.430Z,6.01
2019-02-19T06:06:28.402Z,5.98
2019-02-19T06:07:28.385Z,6.01
2019-02-19T06:08:28.381Z,6.01
2019-02-19T06:09:28.468Z,5.98
2019-02-19T06:10:28.375Z,6.08
2019-02-19T06:11:28.346Z,6.11
2019-02-19T06:12:28.332Z,6.08
2019-02-19T06:13:28.534Z,6.09
2019-02-19T06:14:28.316Z,6.17
2019-02-19T06:15:28.398Z,6.17
2019-02-19T06:16:28.302Z,6.16
2019-02-19T06:17:28.276Z,6.20
2019-02-19T06:18:28.271Z,6.12
2019-02-19T06:19:28.274Z,6.14
2019-02-19T06:20:28.272Z,6.26
2019-02-19T06:21:28.240Z,6.24
2019-02-19T06:22:28.243Z,6.20
2019-02-19T06:23:28.223Z,6.16
2019-02-19T06:24:28.201Z,6.12
2019-02-19T06:25:28.213Z,6.20
2019-02-19T06:26:28.212Z,6.11
2019-02-19T06:27:28.183Z,6.26
2019-02-19T06:28:28.178Z,6.08
2019-02-19T06:29:28.164Z,6.17
2019-02-19T06:30:28.160Z,6.22
2019-02-19T06:31:28.133Z,6.20
2019-02-19T06:32:28.126Z,6.17
2019-02-19T06:33:28.132Z,6.12
2019-02-19T06:34:28.108Z,6.17
2019-02-19T06:35:28.113Z,6.24
2019-02-19T06:36:28.094Z,6.19
2019-02-19T06:37:28.079Z,6.11
2019-02-19T06:38:28.057Z,6.19
2019-02-19T06:39:28.048Z,6.24
2019-02-19T06:40:28.048Z,6.14
2019-02-19T06:41:28.039Z,6.24
2019-02-19T06:42:28.032Z,6.17
2019-02-19T06:43:27.998Z,6.20
2019-02-19T06:44:27.991Z,6.17
2019-02-19T06:45:27.985Z,6.19
2019-02-19T06:46:27.997Z,6.17
2019-02-19T06:47:27.956Z,6.24
2019-02-19T06:48:27.955Z,6.17
2019-02-19T06:49:27.960Z,6.12
2019-02-19T06:50:27.931Z,6.17
2019-02-19T06:51:27.919Z,6.12
2019-02-19T06:52:27.924Z,6.14
2019-02-19T06:53:27.944Z,6.07
2019-02-19T06:54:27.906Z,6.14
2019-02-19T06:55:28.093Z,6.09
2019-02-19T06:56:27.888Z,6.24
2019-02-19T06:57:27.855Z,6.12
2019-02-19T06:58:27.871Z,6.09
2019-02-19T06:59:27.833Z,6.05
2019-02-19T07:00:27.820Z,6.24
2019-02-19T07:01:27.833Z,6.26
2019-02-19T07:02:27.800Z,6.11
2019-02-19T07:03:27.825Z,6.14
2019-02-19T07:04:27.777Z,6.24
2019-02-19T07:05:27.765Z,6.26
2019-02-19T07:06:27.784Z,6.16
2019-02-19T07:07:27.745Z,6.19
2019-02-19T07:08:27.731Z,6.20
2019-02-19T07:09:27.759Z,6.33
2019-02-19T07:10:27.720Z,6.19
2019-02-19T07:11:27.722Z,6.28
2019-02-19T07:12:27.706Z,6.22
2019-02-19T07:13:27.684Z,6.22
2019-02-19T07:14:27.673Z,6.24
2019-02-19T07:15:27.682Z,6.20
2019-02-19T07:16:27.693Z,6.19
2019-02-19T07:17:27.666Z,6.22
2019-02-19T07:18:27.627Z,6.20
2019-02-19T07:19:27.615Z,6.33
2019-02-19T07:20:27.605Z,6.22
2019-02-19T07:21:27.636Z,6.36
2019-02-19T07:22:27.587Z,6.41
2019-02-19T07:23:27.574Z,6.36
2019-02-19T07:24:27.570Z,6.41
2019-02-19T07:25:27.594Z,6.31
2019-02-19T07:26:27.558Z,6.35
2019-02-19T07:27:27.552Z,6.36
2019-02-19T07:28:27.528Z,6.35
2019-02-19T07:29:27.518Z,6.42
2019-02-19T07:30:27.502Z,6.41
2019-02-19T07:31:27.503Z,6.41
2019-02-19T07:32:27.482Z,6.44
2019-02-19T07:33:27.481Z,6.46
2019-02-19T07:34:27.459Z,6.51
2019-02-19T07:35:27.451Z,6.48
2019-02-19T07:36:27.447Z,6.56
2019-02-19T07:37:27.642Z,6.57
2019-02-19T07:38:27.416Z,6.60
2019-02-19T07:39:27.425Z,6.64
2019-02-19T07:40:27.396Z,6.64
2019-02-19T07:41:27.400Z,6.57
2019-02-19T07:42:27.370Z,6.67
2019-02-19T07:43:27.360Z,6.64
2019-02-19T07:44:27.366Z,6.62
2019-02-19T07:45:27.341Z,6.60
2019-02-19T07:46:27.326Z,6.67
2019-02-19T07:47:27.361Z,6.69
2019-02-19T07:48:27.309Z,6.60
2019-02-19T07:49:27.297Z,6.63
2019-02-19T07:50:27.310Z,6.67
2019-02-19T07:51:27.295Z,6.70
2019-02-19T07:52:27.270Z,6.62
2019-02-19T07:53:27.266Z,6.63
2019-02-19T07:54:27.257Z,6.60
2019-02-19T07:55:27.237Z,6.66
2019-02-19T07:56:27.287Z,6.63
2019-02-19T07:57:27.213Z,6.67
2019-02-19T07:58:27.418Z,6.63
2019-02-19T07:59:27.201Z,6.62
2019-02-19T08:00:27.175Z,6.59
2019-02-19T08:01:27.231Z,6.62
2019-02-19T08:02:27.170Z,6.57
2019-02-19T08:03:27.161Z,6.66
2019-02-19T08:04:27.139Z,6.70
2019-02-19T08:05:27.123Z,6.62
2019-02-19T08:06:27.126Z,6.64
2019-02-19T08:07:27.106Z,6.57
2019-02-19T08:08:27.093Z,6.59
2019-02-19T08:09:27.087Z,6.66
2019-02-19T08:10:27.141Z,6.72
2019-02-19T08:11:27.124Z,6.67
2019-02-19T08:12:27.068Z,6.67
2019-02-19T08:13:27.060Z,6.70
2019-02-19T08:14:28.585Z,6.66
2019-02-19T08:15:27.022Z,6.70
2019-02-19T08:16:27.028Z,6.70
2019-02-19T08:17:33.090Z,6.81
2019-02-19T08:18:27.993Z,6.74
2019-02-19T08:19:27.027Z,6.79
2019-02-19T08:20:26.969Z,6.89
2019-02-19T08:21:26.967Z,6.93
2019-02-19T08:22:26.976Z,6.85
2019-02-19T08:23:26.930Z,6.89
2019-02-19T08:24:26.923Z,6.88
2019-02-19T08:25:26.907Z,6.88
2019-02-19T08:26:26.899Z,6.88
2019-02-19T08:27:26.915Z,6.87
2019-02-19T08:28:26.896Z,6.88
2019-02-19T08:29:26.865Z,6.85
2019-02-19T08:30:26.851Z,6.95
2019-02-19T08:31:26.845Z,6.92
2019-02-19T08:32:26.830Z,6.84
2019-02-19T08:33:26.839Z,6.89
2019-02-19T08:34:26.844Z,6.85
2019-02-19T08:35:26.797Z,6.77
2019-02-19T08:36:26.807Z,6.77
2019-02-19T08:37:26.777Z,6.74
2019-02-19T08:38:26.766Z,6.74
2019-02-19T08:39:26.759Z,6.69
2019-02-19T08:40:27.100Z,6.70
2019-02-19T08:41:26.740Z,6.69
2019-02-19T08:42:26.737Z,6.64
2019-02-19T08:43:26.711Z,6.56
2019-02-19T08:44:26.699Z,6.63
2019-02-19T08:45:26.692Z,6.60
2019-02-19T08:46:26.711Z,6.67
2019-02-19T08:47:26.729Z,6.64
2019-02-19T08:48:26.656Z,6.67
2019-02-19T08:49:26.644Z,6.67
2019-02-19T08:50:26.638Z,6.54
2019-02-19T08:51:26.624Z,6.64
2019-02-19T08:52:26.679Z,6.64
2019-02-19T08:53:26.601Z,6.69
2019-02-19T08:54:26.591Z,6.77
2019-02-19T08:55:26.580Z,6.78
2019-02-19T08:56:26.573Z,6.79
2019-02-19T08:57:26.577Z,6.82
2019-02-19T08:58:26.569Z,6.79
2019-02-19T08:59:26.535Z,6.79
2019-02-19T09:00:26.526Z,6.79
2019-02-19T09:01:26.516Z,6.78
2019-02-19T09:02:26.521Z,6.88
2019-02-19T09:03:26.494Z,7.00
2019-02-19T09:04:26.512Z,7.00
2019-02-19T09:05:26.470Z,6.97
2019-02-19T09:06:27.667Z,7.02
2019-02-19T09:07:26.473Z,7.17
2019-02-19T09:08:26.437Z,7.14
2019-02-19T09:09:26.429Z,7.18
2019-02-19T09:10:26.429Z,7.18
2019-02-19T09:11:26.417Z,7.33
2019-02-19T09:12:26.416Z,7.38
2019-02-19T09:13:26.393Z,7.42
2019-02-19T09:14:26.376Z,7.40
2019-02-19T09:15:26.360Z,7.48
2019-02-19T09:16:26.381Z,7.45
2019-02-19T09:17:26.378Z,7.47
2019-02-19T09:18:26.328Z,7.38
2019-02-19T09:19:26.323Z,7.51
2019-02-19T09:20:26.307Z,7.58
2019-02-19T09:21:26.295Z,7.60
2019-02-19T09:22:26.300Z,7.58
2019-02-19T09:23:26.301Z,7.70
2019-02-19T09:24:26.269Z,7.60
2019-02-19T09:25:26.258Z,7.60
2019-02-19T09:26:26.242Z,7.69
2019-02-19T09:27:26.248Z,7.73
2019-02-19T09:28:26.222Z,7.73
2019-02-19T09:29:26.230Z,7.70
2019-02-19T09:30:26.204Z,7.70
2019-02-19T09:31:26.203Z,7.57
2019-02-19T09:32:26.193Z,7.69
2019-02-19T09:33:26.168Z,7.70
2019-02-19T09:34:26.156Z,7.77
2019-02-19T09:35:26.182Z,7.70
2019-02-19T09:36:26.135Z,7.63
2019-02-19T09:37:26.148Z,7.75
2019-02-19T09:38:26.122Z,7.76
2019-02-19T09:39:26.105Z,7.70
2019-02-19T09:40:26.092Z,7.72
2019-02-19T09:41:26.094Z,7.75
2019-02-19T09:42:26.107Z,7.69
2019-02-19T09:43:26.062Z,7.73
2019-02-19T09:44:26.046Z,7.76
2019-02-19T09:45:26.036Z,7.80
2019-02-19T09:46:26.025Z,7.73
2019-02-19T09:47:26.067Z,7.69
2019-02-19T09:48:26.032Z,7.83
2019-02-19T09:49:25.995Z,7.85
2019-02-19T09:50:25.995Z,7.82
2019-02-19T09:51:25.974Z,7.91
2019-02-19T09:52:25.963Z,7.97
2019-02-19T09:53:25.973Z,7.98
2019-02-19T09:54:25.958Z,8.05
2019-02-19T09:55:25.949Z,8.09
2019-02-19T09:56:25.936Z,8.01
2019-02-19T09:57:25.916Z,8.03
2019-02-19T09:58:25.931Z,8.13
2019-02-19T09:59:25.902Z,8.16
2019-02-19T10:00:25.886Z,7.98
2019-02-19T10:01:25.882Z,8.03
2019-02-19T10:02:25.853Z,7.88
2019-02-19T10:03:25.856Z,7.88
2019-02-19T10:04:26.048Z,7.67
2019-02-19T10:05:25.854Z,7.76
2019-02-19T10:06:25.810Z,7.69
2019-02-19T10:07:25.800Z,7.69
2019-02-19T10:08:25.807Z,7.56
2019-02-19T10:09:25.785Z,7.56
2019-02-19T10:10:25.786Z,7.63
2019-02-19T10:11:25.768Z,7.60
2019-02-19T10:12:25.768Z,7.70
2019-02-19T10:13:25.841Z,7.66
2019-02-19T10:14:25.735Z,7.66
2019-02-19T10:15:25.727Z,7.72
2019-02-19T10:16:25.731Z,7.75
2019-02-19T10:17:25.700Z,7.83
2019-02-19T10:18:25.736Z,7.95
2019-02-19T10:19:26.154Z,8.01
2019-02-19T10:20:25.669Z,8.00
2019-02-19T10:21:25.650Z,8.06
2019-02-19T10:22:25.652Z,8.01
2019-02-19T10:23:25.660Z,8.00
2019-02-19T10:24:25.618Z,8.15
2019-02-19T10:25:25.607Z,8.15
2019-02-19T10:26:25.593Z,8.16
2019-02-19T10:27:25.590Z,8.05
2019-02-19T10:28:25.588Z,8.12
2019-02-19T10:29:25.589Z,8.13
2019-02-19T10:30:25.550Z,8.10
2019-02-19T10:31:25.540Z,8.09
2019-02-19T10:32:25.531Z,8.16
2019-02-19T10:33:25.531Z,8.18
2019-02-19T10:34:25.545Z,8.26
2019-02-19T10:35:25.526Z,8.33
2019-02-19T10:36:25.501Z,8.33
2019-02-19T10:37:25.489Z,8.38
2019-02-19T10:38:25.576Z,8.52
2019-02-19T10:39:25.464Z,8.64
2019-02-19T10:40:25.463Z,8.58
2019-02-19T10:41:25.488Z,8.67
2019-02-19T10:42:25.454Z,8.60
2019-02-19T10:43:25.419Z,8.48
2019-02-19T10:44:25.539Z,8.28
2019-02-19T10:45:25.400Z,8.26
2019-02-19T10:46:25.395Z,8.26
2019-02-19T10:47:25.390Z,8.10
2019-02-19T10:48:25.374Z,8.09
2019-02-19T10:49:25.362Z,8.06
2019-02-19T10:50:25.338Z,8.06
2019-02-19T10:51:25.348Z,8.10
2019-02-19T10:52:25.341Z,7.98
2019-02-19T10:53:25.330Z,8.01
2019-02-19T10:54:25.298Z,8.15
2019-02-19T10:55:25.304Z,8.16
2019-02-19T10:56:25.287Z,8.10
2019-02-19T10:57:25.285Z,8.12
2019-02-19T10:58:25.247Z,8.08
2019-02-19T10:59:25.262Z,8.12
2019-02-19T11:00:25.228Z,8.12
2019-02-19T11:01:25.217Z,8.10
2019-02-19T11:02:25.225Z,8.08
2019-02-19T11:03:25.218Z,8.10
2019-02-19T11:04:25.196Z,7.97
2019-02-19T11:05:25.198Z,8.05
2019-02-19T11:06:25.166Z,8.03
2019-02-19T11:07:25.161Z,8.01
2019-02-19T11:08:25.201Z,8.12
2019-02-19T11:09:25.142Z,8.12
2019-02-19T11:10:25.153Z,8.13
2019-02-19T11:11:25.141Z,8.23
2019-02-19T11:12:25.100Z,8.24
2019-02-19T11:13:25.106Z,8.27
2019-02-19T11:14:25.081Z,8.38
2019-02-19T11:15:25.074Z,8.31
2019-02-19T11:16:25.079Z,8.36
2019-02-19T11:17:25.054Z,8.49
2019-02-19T11:18:28.425Z,8.37
2019-02-19T11:19:25.046Z,8.42
2019-02-19T11:20:25.013Z,8.42
2019-02-19T11:21:25.007Z,8.53
2019-02-19T11:22:26.007Z,8.61
2019-02-19T11:23:24.998Z,8.56
2019-02-19T11:24:24.968Z,8.66
2019-02-19T11:25:24.978Z,8.81
2019-02-19T11:26:24.952Z,8.85
2019-02-19T11:27:24.942Z,8.88
2019-02-19T11:28:24.945Z,8.84
2019-02-19T11:29:25.043Z,8.73
2019-02-19T11:30:24.908Z,8.85
2019-02-19T11:31:24.934Z,8.91
2019-02-19T11:32:26.355Z,8.88
2019-02-19T11:33:24.873Z,8.85
2019-02-19T11:34:24.877Z,8.94
2019-02-19T11:35:24.848Z,8.82
2019-02-19T11:36:24.837Z,8.94
2019-02-19T11:37:24.843Z,9.04
2019-02-19T11:38:24.849Z,9.06
2019-02-19T11:39:24.835Z,9.10
2019-02-19T11:40:24.842Z,9.10
2019-02-19T11:41:24.799Z,9.16
2019-02-19T11:42:24.772Z,9.22
2019-02-19T11:43:24.804Z,9.21
2019-02-19T11:44:24.807Z,9.23
2019-02-19T11:45:24.742Z,9.34
2019-02-19T11:46:24.751Z,9.22
2019-02-19T11:47:26.662Z,9.40
2019-02-19T11:48:24.714Z,9.44
2019-02-19T11:49:24.828Z,9.61
2019-02-19T11:50:24.703Z,9.72
2019-02-19T11:51:24.678Z,9.87
2019-02-19T11:52:24.731Z,10.01
2019-02-19T11:53:24.673Z,10.01
2019-02-19T11:54:24.664Z,9.91
2019-02-19T11:55:24.639Z,9.94
2019-02-19T11:56:24.633Z,10.07
2019-02-19T11:57:24.627Z,10.13
2019-02-19T11:58:24.606Z,10.10
2019-02-19T11:59:24.611Z,10.09
2019-02-19T12:00:24.674Z,9.99
2019-02-19T12:01:24.568Z,9.94
2019-02-19T12:02:32.577Z,10.05
2019-02-19T12:03:25.545Z,9.95
2019-02-19T12:04:24.556Z,9.98
2019-02-19T12:05:24.534Z,10.07
2019-02-19T12:06:24.529Z,10.02
2019-02-19T12:07:24.507Z,9.83
2019-02-19T12:08:24.494Z,9.87
2019-02-19T12:09:24.498Z,9.82
2019-02-19T12:10:24.472Z,9.91
2019-02-19T12:11:24.534Z,9.94
2019-02-19T12:12:24.454Z,9.83
2019-02-19T12:13:24.443Z,9.80
2019-02-19T12:14:24.451Z,9.83
2019-02-19T12:15:24.413Z,9.72
2019-02-19T12:16:24.407Z,9.73
2019-02-19T12:17:24.433Z,9.74
2019-02-19T12:18:24.383Z,9.69
2019-02-19T12:19:24.385Z,9.68
2019-02-19T12:20:24.390Z,9.74
2019-02-19T12:21:24.362Z,9.72
2019-02-19T12:22:24.353Z,9.82
2019-02-19T12:23:24.331Z,9.84
2019-02-19T12:24:24.450Z,9.99
2019-02-19T12:25:24.354Z,10.07
2019-02-19T12:26:24.338Z,10.12
2019-02-19T12:27:24.291Z,9.99
2019-02-19T12:28:24.300Z,9.99
2019-02-19T12:29:24.260Z,9.94
2019-02-19T12:30:24.258Z,9.95
2019-02-19T12:31:24.310Z,9.89
2019-02-19T12:32:24.252Z,9.83
2019-02-19T12:33:24.223Z,9.82
2019-02-19T12:34:24.236Z,9.72
2019-02-19T12:35:24.202Z,9.66
2019-02-19T12:36:24.208Z,9.58
2019-02-19T12:37:24.176Z,9.51
2019-02-19T12:38:24.185Z,9.41
2019-02-19T12:39:24.159Z,9.41
2019-02-19T12:40:24.187Z,9.40
2019-02-19T12:41:24.136Z,9.41
2019-02-19T12:42:24.129Z,9.34
2019-02-19T12:43:24.118Z,9.40
2019-02-19T12:44:24.125Z,9.37
2019-02-19T12:45:24.109Z,9.39
2019-02-19T12:46:24.101Z,9.41
2019-02-19T12:47:24.087Z,9.37
2019-02-19T12:48:24.072Z,9.31
2019-02-19T12:49:24.054Z,9.37
2019-02-19T12:50:24.160Z,9.37
2019-02-19T12:51:26.458Z,9.51
2019-02-19T12:52:24.010Z,9.46
2019-02-19T12:53:24.027Z,9.58
2019-02-19T12:54:24.003Z,9.62
2019-02-19T12:55:23.989Z,9.72
2019-02-19T12:56:23.996Z,9.83
2019-02-19T12:57:23.952Z,9.89
2019-02-19T12:58:23.958Z,9.94
2019-02-19T12:59:23.931Z,10.01
2019-02-19T13:00:23.922Z,9.94
2019-02-19T13:01:23.917Z,9.98
2019-02-19T13:02:23.931Z,9.87
2019-02-19T13:03:23.892Z,9.97
2019-02-19T13:04:23.950Z,10.07
2019-02-19T13:05:23.908Z,9.91
2019-02-19T13:06:23.858Z,9.83
2019-02-19T13:07:23.873Z,9.83
2019-02-19T13:08:23.837Z,9.86
2019-02-19T13:09:23.829Z,9.73
2019-02-19T13:10:23.829Z,9.66
2019-02-19T13:11:23.819Z,9.61
2019-02-19T13:12:23.806Z,9.56
2019-02-19T13:13:23.790Z,9.64
2019-02-19T13:14:23.776Z,9.72
2019-02-19T13:15:23.798Z,9.73
2019-02-19T13:16:23.746Z,9.73
2019-02-19T13:17:23.748Z,9.72
2019-02-19T13:18:23.736Z,9.69